메인 페이지
METAR-TAF:

METAR-TAF

공항 :

Homestead, 플로리다, 미국

위도: 25-29N, 경도: 080-23W, 고도: 2m

현재 날씨관측

예보는 40분 전, 18:56시(UTC)에 발표되었습니다.
남서17kt
온도 28°C
습도 70%
기압 1012 hPa
시정: 16.1km
고도 3100ft 상공 구름 조금
고도 19000ft 상공 구름 조금

METAR: KHST 301856Z AUTO 23017KT 10SM FEW031 FEW190 28/22 A2987 RMK AO2 SLP118 T02840221 $

시각: 14:36 (19:36 UTC)

예보

예보는 7 시간 36분 전, 12:00시(UTC)에 발표되었습니다.
예보 대상 시간: 30일 12시부터 01일 18시까지 (UTC)
남남서6kt
시정 10km 이상
고도 2500ft 상공 구름 조금
고도 7000ft 상공 구름 보통
전환 중
30일 14시부터 30일 15시까지 (UTC)
남서12kt
시정 10km 이상
고도 3000ft 상공 구름 보통
고도 4500ft 상공 구름 많음
전환 중
30일 21시부터 30일 22시까지 (UTC)
남서12kt, 순간 최대 풍속 18kt
시정 10km 이상
고도 2500ft 상공 구름 많음, 적란운.
고도 4000ft 상공 흐림
약한소나기, 시계 내 뇌우
전환 중
01일 01시부터 01일 02시까지 (UTC)
서북서10kt
시정 10km 이상
고도 2500ft 상공 구름 보통
고도 4000ft 상공 흐림
전환 중
01일 08시부터 01일 09시까지 (UTC)
북북서10kt
시정 10km 이상
고도 2500ft 상공 구름 보통

TAF: KHST 301200Z 3012/0118 21006KT 9999 FEW025 SCT070 QNH2993INS BECMG 3014/3015 22012KT 9999 SCT030 BKN045 QNH2986INS BECMG 3021/3022 22012G18KT 9999 -SHRA VCTS BKN025CB OVC040 QNH2985INS BECMG 0101/0102 29010KT 9999 NSW SCT025 OVC040 QNH2993INS BECMG 0108/0109 34010KT 9999 SCT025 QNH3002INS TX28/3017Z TN15/0111Z

4,000개 이상의 공항 관측 자료 및 예보 (METAR 및 TAF 보고).

지도상에서 검색 가능한 기상관측소가 노란 점과 빨간 점으로 표시되어 있습니다.

기상관측소 명을 보려면 표시 위로 마우스를 이동하세요.

날씨 관측과 예보를 보려면 클릭하세요.

지도 변경 : 확대하려면 엑스 표시가 있는 녹색 버튼, 축소하려면 빼기 표시가 있는 녹색 버튼, 다음 페이지의 지도를 보려면 녹색 화살표를 클릭하세요.


METAR-TAF: